Time;durP1;ratioP1;P1;durP2;ratioP2;P2;SDS_P1;SDS_P2;PMS_P1;PMS_P2;Temp;Humidity;BMP_temperature;BMP_pressure;BME280_temperature;BME280_humidity;BME280_pressure;Samples;Min_cycle;Max_cycle;Signal;HPM_P1;HPM_P2
2023/01/30 00:01:13;;;;;;;1.02;0.90;;;;;;;;;;5027312;28;20041;-76
2023/01/30 00:03:39;;;;;;;1.85;0.90;;;;;;;;;;5026732;28;20096;-77
2023/01/30 00:06:05;;;;;;;1.23;0.70;;;;;;;;;;5027038;28;20561;-76
2023/01/30 00:08:31;;;;;;;1.48;1.00;;;;;;;;;;5027211;28;20443;-76
2023/01/30 00:10:57;;;;;;;0.98;0.88;;;;;;;;;;5028221;28;20037;-76
2023/01/30 00:13:23;;;;;;;1.95;1.08;;;;;;;;;;5030150;28;20524;-76
2023/01/30 00:15:49;;;;;;;0.85;0.80;;;;;;;;;;5027052;28;20482;-77
2023/01/30 00:18:15;;;;;;;1.92;1.10;;;;;;;;;;5026956;28;20030;-77
2023/01/30 00:20:41;;;;;;;1.60;1.02;;;;;;;;;;5026388;28;20032;-76
2023/01/30 00:23:07;;;;;;;1.40;1.13;;;;;;;;;;5026909;28;20087;-76
2023/01/30 00:25:33;;;;;;;0.98;0.88;;;;;;;;;;5026735;28;20032;-76
2023/01/30 00:28:00;;;;;;;1.70;1.00;;;;;;;;;;5027198;28;20031;-76
2023/01/30 00:30:26;;;;;;;0.98;0.90;;;;;;;;;;5026703;28;20033;-77
2023/01/30 00:32:56;;;;;;;1.90;1.15;;;;;;;;;;5026734;28;20551;-76
2023/01/30 00:35:27;;;;;;;0.95;0.60;;;;;;;;;;5026033;28;20080;-77
2023/01/30 00:37:53;;;;;;;1.55;0.85;;;;;;;;;;5027039;28;20266;-76
2023/01/30 00:40:19;;;;;;;1.67;1.27;;;;;;;;;;5026513;28;20033;-77
2023/01/30 00:48:14;;;;;;;1.52;0.98;;;;;;;;;;5031318;28;20504;-77
2023/01/30 00:50:43;;;;;;;2.08;1.05;;;;;;;;;;5030147;28;20033;-76
2023/01/30 00:53:09;;;;;;;0.82;0.70;;;;;;;;;;5030570;28;20025;-76
2023/01/30 00:55:35;;;;;;;1.38;0.90;;;;;;;;;;5029976;28;20061;-77
2023/01/30 00:58:01;;;;;;;1.75;1.20;;;;;;;;;;5030371;28;20032;-77
2023/01/30 01:00:28;;;;;;;1.40;1.08;;;;;;;;;;5030066;28;20136;-77
2023/01/30 01:02:53;;;;;;;1.10;0.95;;;;;;;;;;5029981;28;20470;-76
2023/01/30 01:05:19;;;;;;;1.80;1.00;;;;;;;;;;5029970;28;20076;-76
2023/01/30 01:07:45;;;;;;;1.00;0.80;;;;;;;;;;5030631;28;20386;-77
2023/01/30 01:10:15;;;;;;;1.88;1.10;;;;;;;;;;5030507;28;20422;-76
2023/01/30 01:12:44;;;;;;;1.30;1.08;;;;;;;;;;5034547;28;20025;-76
2023/01/30 01:15:13;;;;;;;1.20;1.10;;;;;;;;;;5029538;28;20026;-76
2023/01/30 01:17:40;;;;;;;1.23;0.90;;;;;;;;;;5029750;28;20026;-77
2023/01/30 01:20:06;;;;;;;1.30;0.98;;;;;;;;;;5030464;28;20108;-76
2023/01/30 01:22:32;;;;;;;2.20;1.10;;;;;;;;;;5030236;28;20061;-76
2023/01/30 01:24:58;;;;;;;1.88;1.23;;;;;;;;;;5030489;28;20030;-77
2023/01/30 01:27:24;;;;;;;2.20;1.10;;;;;;;;;;5029586;28;20470;-77
2023/01/30 01:29:50;;;;;;;1.77;1.20;;;;;;;;;;5029548;28;20024;-77
2023/01/30 01:32:16;;;;;;;1.50;1.05;;;;;;;;;;5030742;28;20501;-76
2023/01/30 01:34:42;;;;;;;1.95;1.42;;;;;;;;;;5029836;28;20029;-76
2023/01/30 01:37:08;;;;;;;1.50;1.30;;;;;;;;;;5029765;28;20497;-77
2023/01/30 01:42:19;;;;;;;2.20;1.20;;;;;;;;;;5029716;28;20405;-77
2023/01/30 01:45:00;;;;;;;2.38;1.50;;;;;;;;;;5029970;28;20033;-77
2023/01/30 01:47:26;;;;;;;1.58;1.20;;;;;;;;;;5029694;28;20041;-77
2023/01/30 01:49:53;;;;;;;1.10;1.00;;;;;;;;;;5029347;28;20330;-77
2023/01/30 01:52:19;;;;;;;1.33;1.02;;;;;;;;;;5029320;28;20033;-77
2023/01/30 01:54:49;;;;;;;1.40;1.10;;;;;;;;;;5028984;28;20034;-76
2023/01/30 01:57:18;;;;;;;1.10;0.95;;;;;;;;;;5029848;28;20021;-77
2023/01/30 01:59:50;;;;;;;1.52;1.10;;;;;;;;;;5029299;28;20034;-77
2023/01/30 02:02:16;;;;;;;2.22;1.17;;;;;;;;;;5030230;28;20087;-77
2023/01/30 02:05:01;;;;;;;1.88;1.17;;;;;;;;;;5029051;28;20030;-78
2023/01/30 02:07:29;;;;;;;1.90;1.25;;;;;;;;;;5029728;28;20112;-77
2023/01/30 02:09:54;;;;;;;2.22;1.40;;;;;;;;;;5029210;28;20083;-78
2023/01/30 02:12:20;;;;;;;2.22;1.20;;;;;;;;;;5033280;28;20381;-77
2023/01/30 02:14:47;;;;;;;1.83;1.30;;;;;;;;;;5029350;28;20033;-77
2023/01/30 02:17:13;;;;;;;1.95;1.40;;;;;;;;;;5029923;28;20014;-77
2023/01/30 02:19:49;;;;;;;1.50;1.38;;;;;;;;;;5028337;28;20108;-77
2023/01/30 02:22:33;;;;;;;2.00;1.25;;;;;;;;;;5029721;28;20069;-77
2023/01/30 02:24:59;;;;;;;1.23;1.10;;;;;;;;;;5029010;28;20087;-77
2023/01/30 02:27:44;;;;;;;1.23;1.08;;;;;;;;;;5028824;28;20025;-77
2023/01/30 02:30:10;;;;;;;1.73;1.27;;;;;;;;;;5028775;28;20033;-77
2023/01/30 02:32:54;;;;;;;2.05;1.30;;;;;;;;;;5028256;28;20138;-77
2023/01/30 02:35:43;;;;;;;1.33;1.10;;;;;;;;;;5028859;28;20458;-77
2023/01/30 02:38:18;;;;;;;2.25;1.30;;;;;;;;;;5028406;28;20486;-76
2023/01/30 02:41:02;;;;;;;0.98;0.88;;;;;;;;;;5029038;28;20358;-77
2023/01/30 02:43:33;;;;;;;1.67;1.13;;;;;;;;;;5029148;28;20482;-77
2023/01/30 02:46:11;;;;;;;1.75;1.20;;;;;;;;;;5028651;28;20373;-77
2023/01/30 02:48:43;;;;;;;2.17;1.60;;;;;;;;;;5028160;28;20025;-77
2023/01/30 02:51:16;;;;;;;2.20;1.30;;;;;;;;;;5028761;28;20043;-77
2023/01/30 02:53:42;;;;;;;2.00;1.30;;;;;;;;;;5027982;28;20075;-76
2023/01/30 02:56:08;;;;;;;1.88;1.13;;;;;;;;;;5028188;28;20261;-77
2023/01/30 02:58:37;;;;;;;1.45;1.10;;;;;;;;;;5027619;28;20021;-78
2023/01/30 03:01:06;;;;;;;1.95;1.17;;;;;;;;;;5027523;28;20069;-78
2023/01/30 03:03:43;;;;;;;1.58;1.10;;;;;;;;;;5028216;28;20057;-77
2023/01/30 03:06:12;;;;;;;2.30;1.55;;;;;;;;;;5027470;28;20509;-77
2023/01/30 03:08:44;;;;;;;1.50;1.20;;;;;;;;;;5027653;28;20187;-77
2023/01/30 03:11:10;;;;;;;2.38;1.50;;;;;;;;;;5030680;28;20032;-77
2023/01/30 03:13:54;;;;;;;2.60;1.30;;;;;;;;;;5027853;28;20269;-77
2023/01/30 03:16:23;;;;;;;1.33;1.23;;;;;;;;;;5027561;28;20083;-77
2023/01/30 03:18:49;;;;;;;1.58;1.00;;;;;;;;;;5027612;28;20028;-77
2023/01/30 03:21:16;;;;;;;2.33;1.42;;;;;;;;;;5028203;28;20036;-78
2023/01/30 03:23:44;;;;;;;1.92;1.20;;;;;;;;;;5027154;28;20032;-77
2023/01/30 03:26:13;;;;;;;2.10;1.30;;;;;;;;;;5027566;28;20100;-77
2023/01/30 03:28:40;;;;;;;2.72;1.42;;;;;;;;;;5027188;28;20033;-76
2023/01/30 03:31:06;;;;;;;2.58;1.70;;;;;;;;;;5027395;28;20470;-77
2023/01/30 03:33:32;;;;;;;1.75;1.20;;;;;;;;;;5028111;28;20477;-77
2023/01/30 03:35:58;;;;;;;2.30;1.23;;;;;;;;;;5027528;28;20063;-77
2023/01/30 03:38:23;;;;;;;1.50;1.13;;;;;;;;;;5027417;28;20030;-77
2023/01/30 03:40:49;;;;;;;2.17;1.20;;;;;;;;;;5027432;28;20022;-77
2023/01/30 03:43:15;;;;;;;1.30;0.80;;;;;;;;;;5028140;28;20026;-77
2023/01/30 03:45:41;;;;;;;2.08;1.20;;;;;;;;;;5027140;28;20021;-76
2023/01/30 03:48:07;;;;;;;4.97;1.55;;;;;;;;;;5027286;28;20021;-77
2023/01/30 03:50:33;;;;;;;2.05;1.30;;;;;;;;;;5027399;28;20026;-77
2023/01/30 03:52:59;;;;;;;1.88;1.45;;;;;;;;;;5027630;28;20025;-77
2023/01/30 03:55:25;;;;;;;2.35;1.45;;;;;;;;;;5027158;28;20045;-76
2023/01/30 03:57:55;;;;;;;1.45;1.10;;;;;;;;;;5027278;28;20018;-76
2023/01/30 04:00:22;;;;;;;1.20;1.10;;;;;;;;;;5026998;28;20049;-77
2023/01/30 04:02:47;;;;;;;1.48;1.35;;;;;;;;;;5037277;28;20074;-78
2023/01/30 04:05:13;;;;;;;2.10;1.38;;;;;;;;;;5030571;28;20367;-77
2023/01/30 04:07:39;;;;;;;1.75;1.35;;;;;;;;;;5027029;28;20044;-77
2023/01/30 04:10:06;;;;;;;2.00;1.17;;;;;;;;;;5027329;28;20116;-78
2023/01/30 04:12:32;;;;;;;1.25;1.00;;;;;;;;;;5031703;28;20029;-77
2023/01/30 04:14:58;;;;;;;1.27;1.17;;;;;;;;;;5027468;28;20036;-77
2023/01/30 04:17:23;;;;;;;1.02;0.90;;;;;;;;;;5031048;28;20424;-77
2023/01/30 04:19:49;;;;;;;1.13;0.90;;;;;;;;;;5033418;28;20088;-78
2023/01/30 04:22:15;;;;;;;2.75;1.00;;;;;;;;;;5034206;28;20021;-78
2023/01/30 04:24:41;;;;;;;1.83;1.35;;;;;;;;;;5033840;28;20303;-77
2023/01/30 04:27:08;;;;;;;1.20;1.10;;;;;;;;;;5033720;28;20337;-77
2023/01/30 04:29:34;;;;;;;1.67;1.15;;;;;;;;;;5034033;28;20021;-78
2023/01/30 04:32:00;;;;;;;1.23;1.10;;;;;;;;;;5033830;28;20485;-78
2023/01/30 04:34:26;;;;;;;2.15;1.45;;;;;;;;;;5033992;28;20040;-78
2023/01/30 04:36:52;;;;;;;1.58;1.40;;;;;;;;;;5033580;28;20021;-77
2023/01/30 04:39:18;;;;;;;1.30;1.02;;;;;;;;;;5033728;28;20024;-77
2023/01/30 04:41:44;;;;;;;2.92;1.30;;;;;;;;;;5033961;28;20058;-78
2023/01/30 04:44:09;;;;;;;2.30;1.30;;;;;;;;;;5033572;28;20386;-76
2023/01/30 04:46:35;;;;;;;1.60;1.17;;;;;;;;;;5033240;28;20432;-77
2023/01/30 04:49:01;;;;;;;1.73;1.10;;;;;;;;;;5033683;28;20437;-76
2023/01/30 04:51:27;;;;;;;1.92;1.20;;;;;;;;;;5034019;28;20021;-76
2023/01/30 04:53:53;;;;;;;2.25;1.48;;;;;;;;;;5033454;28;20022;-76
2023/01/30 04:56:19;;;;;;;1.27;1.10;;;;;;;;;;5033040;28;20371;-77
2023/01/30 04:58:45;;;;;;;1.98;1.13;;;;;;;;;;5033416;28;20428;-76
2023/01/30 05:01:16;;;;;;;1.15;0.80;;;;;;;;;;5033305;28;20429;-76
2023/01/30 05:03:42;;;;;;;2.80;1.20;;;;;;;;;;5033217;28;20029;-76
2023/01/30 05:06:08;;;;;;;2.00;1.35;;;;;;;;;;5033158;28;20139;-76
2023/01/30 05:08:34;;;;;;;2.53;1.40;;;;;;;;;;5033318;28;20025;-76
2023/01/30 05:11:00;;;;;;;1.20;1.10;;;;;;;;;;5034667;28;20045;-76
2023/01/30 05:13:25;;;;;;;2.17;1.20;;;;;;;;;;5035093;28;20079;-77
2023/01/30 05:15:51;;;;;;;1.90;1.40;;;;;;;;;;5032457;28;20392;-77
2023/01/30 05:18:17;;;;;;;1.67;0.98;;;;;;;;;;5032518;28;20025;-76
2023/01/30 05:20:43;;;;;;;2.30;1.35;;;;;;;;;;5032942;28;20021;-76
2023/01/30 05:23:09;;;;;;;2.88;1.10;;;;;;;;;;5032488;28;20017;-77
2023/01/30 05:25:35;;;;;;;1.75;1.10;;;;;;;;;;5032725;28;20494;-77
2023/01/30 05:28:01;;;;;;;1.13;1.00;;;;;;;;;;5031424;28;20034;-76
2023/01/30 05:30:27;;;;;;;2.10;1.40;;;;;;;;;;5029548;28;20029;-77
2023/01/30 05:32:53;;;;;;;1.23;0.93;;;;;;;;;;5029453;28;20436;-76
2023/01/30 05:35:19;;;;;;;2.90;1.58;;;;;;;;;;5029362;28;20029;-77
2023/01/30 05:37:51;;;;;;;1.58;1.00;;;;;;;;;;5029814;28;20030;-77
2023/01/30 05:40:17;;;;;;;2.50;1.10;;;;;;;;;;5030126;28;20083;-76
2023/01/30 05:42:43;;;;;;;1.95;1.23;;;;;;;;;;5029897;28;20029;-77
2023/01/30 05:45:09;;;;;;;2.13;1.23;;;;;;;;;;5029651;28;20359;-77
2023/01/30 05:47:35;;;;;;;1.88;1.20;;;;;;;;;;5029613;28;20038;-76
2023/01/30 05:50:01;;;;;;;1.75;1.20;;;;;;;;;;5030087;28;20046;-76
2023/01/30 05:52:27;;;;;;;2.33;1.40;;;;;;;;;;5029962;28;20087;-77
2023/01/30 05:54:53;;;;;;;3.08;1.17;;;;;;;;;;5029066;28;20104;-77
2023/01/30 05:57:19;;;;;;;2.28;1.30;;;;;;;;;;5029020;28;20382;-76
2023/01/30 05:59:45;;;;;;;1.63;1.27;;;;;;;;;;5029688;28;20056;-77
2023/01/30 06:02:11;;;;;;;2.35;1.42;;;;;;;;;;5029023;28;20017;-77
2023/01/30 06:04:37;;;;;;;2.13;1.10;;;;;;;;;;5029250;28;20025;-78
2023/01/30 06:07:03;;;;;;;1.80;1.25;;;;;;;;;;5028900;28;20029;-76
2023/01/30 06:09:29;;;;;;;2.28;1.30;;;;;;;;;;5029433;28;20018;-77
2023/01/30 06:11:55;;;;;;;1.88;1.33;;;;;;;;;;5032839;28;20025;-77
2023/01/30 06:14:21;;;;;;;1.60;1.20;;;;;;;;;;5028899;28;20631;-77
2023/01/30 06:16:47;;;;;;;1.65;1.20;;;;;;;;;;5028804;28;20049;-77
2023/01/30 06:19:13;;;;;;;1.48;1.38;;;;;;;;;;5029466;28;20355;-78
2023/01/30 06:21:39;;;;;;;1.60;1.25;;;;;;;;;;5028802;28;20055;-78
2023/01/30 06:24:05;;;;;;;1.20;1.10;;;;;;;;;;5028726;28;20112;-78
2023/01/30 06:26:31;;;;;;;1.63;1.20;;;;;;;;;;5029170;28;20075;-77
2023/01/30 06:28:57;;;;;;;1.48;1.10;;;;;;;;;;5028602;28;20130;-77
2023/01/30 06:31:23;;;;;;;1.35;1.25;;;;;;;;;;5028250;28;20028;-78
2023/01/30 06:33:49;;;;;;;2.15;1.13;;;;;;;;;;5028226;28;20048;-77
2023/01/30 06:36:15;;;;;;;1.42;1.02;;;;;;;;;;5029217;28;20052;-77
2023/01/30 06:38:41;;;;;;;1.67;1.08;;;;;;;;;;5028207;28;20013;-76
2023/01/30 06:41:07;;;;;;;2.25;1.20;;;;;;;;;;5027758;28;20487;-78
2023/01/30 06:43:33;;;;;;;1.70;1.38;;;;;;;;;;5028490;28;20030;-77
2023/01/30 06:45:59;;;;;;;1.65;1.10;;;;;;;;;;5028823;28;20026;-78
2023/01/30 06:48:25;;;;;;;2.20;1.27;;;;;;;;;;5028026;28;20037;-77
2023/01/30 06:50:51;;;;;;;2.15;1.13;;;;;;;;;;5027673;28;20329;-78
2023/01/30 06:53:17;;;;;;;1.23;0.98;;;;;;;;;;5028403;28;20030;-77
2023/01/30 06:55:43;;;;;;;2.08;1.45;;;;;;;;;;5010109;28;20477;-78
2023/01/30 06:58:10;;;;;;;1.10;1.00;;;;;;;;;;5027701;28;20458;-77
2023/01/30 07:00:38;;;;;;;1.90;1.33;;;;;;;;;;5027663;28;20059;-77
2023/01/30 07:03:04;;;;;;;1.52;1.30;;;;;;;;;;5027871;28;20031;-77
2023/01/30 07:05:30;;;;;;;2.33;1.15;;;;;;;;;;5028509;28;20033;-77
2023/01/30 07:07:56;;;;;;;1.42;1.10;;;;;;;;;;5027559;28;20033;-77
2023/01/30 07:10:24;;;;;;;1.70;1.10;;;;;;;;;;5027438;28;20040;-78
2023/01/30 07:12:50;;;;;;;1.10;0.85;;;;;;;;;;5031020;28;20041;-77
2023/01/30 07:15:16;;;;;;;1.63;1.00;;;;;;;;;;5028080;28;20025;-76
2023/01/30 07:17:42;;;;;;;0.90;0.90;;;;;;;;;;5027690;28;20078;-77
2023/01/30 07:20:10;;;;;;;2.28;1.10;;;;;;;;;;5027486;28;20025;-76
2023/01/30 07:22:36;;;;;;;2.88;1.50;;;;;;;;;;5027458;28;20013;-77
2023/01/30 07:25:02;;;;;;;1.65;1.00;;;;;;;;;;5027513;28;20090;-77
2023/01/30 07:27:28;;;;;;;1.10;1.00;;;;;;;;;;5027934;28;20025;-77
2023/01/30 07:29:54;;;;;;;1.25;0.80;;;;;;;;;;5027166;28;20018;-78
2023/01/30 07:32:20;;;;;;;0.98;0.90;;;;;;;;;;5027505;28;20078;-77
2023/01/30 07:34:46;;;;;;;2.33;0.90;;;;;;;;;;5027633;28;20390;-77
2023/01/30 07:37:12;;;;;;;1.67;1.33;;;;;;;;;;5026794;28;20120;-77
2023/01/30 07:39:38;;;;;;;1.20;1.10;;;;;;;;;;5026961;28;20029;-77
2023/01/30 07:42:04;;;;;;;0.82;0.80;;;;;;;;;;5026647;28;20028;-76
2023/01/30 07:44:30;;;;;;;1.40;0.82;;;;;;;;;;5027578;28;20099;-76
2023/01/30 07:46:56;;;;;;;2.25;1.30;;;;;;;;;;5027166;28;20024;-77
2023/01/30 07:49:22;;;;;;;1.75;1.10;;;;;;;;;;5027056;28;20044;-76
2023/01/30 07:51:48;;;;;;;1.75;1.05;;;;;;;;;;5026337;28;20117;-76
2023/01/30 07:54:14;;;;;;;1.38;0.90;;;;;;;;;;5027096;28;20083;-77
2023/01/30 07:56:40;;;;;;;1.58;1.02;;;;;;;;;;5026363;28;20033;-77
2023/01/30 07:59:06;;;;;;;1.40;0.70;;;;;;;;;;5026584;28;20231;-77
2023/01/30 08:01:32;;;;;;;1.50;1.05;;;;;;;;;;5026470;28;20057;-77
2023/01/30 08:03:58;;;;;;;1.02;0.90;;;;;;;;;;5026490;28;20068;-76
2023/01/30 08:06:24;;;;;;;0.70;0.68;;;;;;;;;;5026649;28;20036;-77
2023/01/30 08:08:50;;;;;;;0.85;0.73;;;;;;;;;;5026136;28;20026;-77
2023/01/30 08:11:17;;;;;;;0.60;0.60;;;;;;;;;;5030052;28;20039;-75
2023/01/30 08:13:43;;;;;;;0.98;0.80;;;;;;;;;;5026571;28;20033;-77
2023/01/30 08:16:09;;;;;;;2.22;0.90;;;;;;;;;;5026030;28;20542;-77
2023/01/30 08:18:35;;;;;;;1.50;0.88;;;;;;;;;;5026646;28;20498;-77
2023/01/30 08:21:02;;;;;;;1.25;1.00;;;;;;;;;;5026157;28;20021;-76
2023/01/30 08:23:28;;;;;;;0.85;0.70;;;;;;;;;;5026734;28;20378;-76
2023/01/30 08:25:55;;;;;;;0.70;0.70;;;;;;;;;;5026086;28;20029;-77
2023/01/30 08:28:21;;;;;;;1.10;0.80;;;;;;;;;;5026288;28;20144;-76
2023/01/30 08:30:48;;;;;;;0.95;0.85;;;;;;;;;;5026248;28;20093;-76
2023/01/30 08:33:14;;;;;;;0.80;0.60;;;;;;;;;;5026571;28;20538;-77
2023/01/30 08:35:42;;;;;;;0.90;0.70;;;;;;;;;;5025477;28;20034;-77
2023/01/30 08:38:08;;;;;;;0.73;0.68;;;;;;;;;;5026015;28;20121;-75
2023/01/30 08:40:35;;;;;;;0.82;0.70;;;;;;;;;;5025750;28;20393;-76
2023/01/30 08:43:01;;;;;;;0.70;0.63;;;;;;;;;;5026229;28;20026;-76
2023/01/30 08:45:27;;;;;;;0.70;0.63;;;;;;;;;;5026271;28;20448;-77
2023/01/30 08:47:57;;;;;;;0.85;0.85;;;;;;;;;;5025979;28;20025;-77
2023/01/30 08:50:23;;;;;;;0.52;0.52;;;;;;;;;;5025816;28;20123;-76
2023/01/30 08:52:49;;;;;;;0.88;0.77;;;;;;;;;;5026088;28;20112;-76
2023/01/30 08:55:15;;;;;;;0.90;0.73;;;;;;;;;;5025990;28;20091;-78
2023/01/30 08:57:41;;;;;;;0.70;0.65;;;;;;;;;;5025436;28;20470;-77
2023/01/30 09:00:07;;;;;;;1.50;1.33;;;;;;;;;;5025497;28;20041;-77
2023/01/30 09:02:33;;;;;;;0.70;0.70;;;;;;;;;;5025996;28;20091;-77
2023/01/30 09:04:59;;;;;;;1.10;0.80;;;;;;;;;;5028447;28;20048;-77
2023/01/30 09:07:27;;;;;;;0.88;0.75;;;;;;;;;;5029539;28;20029;-77
2023/01/30 09:09:53;;;;;;;1.13;0.65;;;;;;;;;;5028988;28;20147;-77
2023/01/30 09:12:19;;;;;;;0.90;0.77;;;;;;;;;;5032759;28;20448;-77
2023/01/30 09:14:45;;;;;;;1.08;0.50;;;;;;;;;;5029582;28;20029;-77
2023/01/30 09:17:11;;;;;;;1.25;0.80;;;;;;;;;;5029110;28;20116;-77
2023/01/30 09:19:37;;;;;;;0.60;0.60;;;;;;;;;;5029306;28;20076;-77
2023/01/30 09:22:04;;;;;;;0.90;0.75;;;;;;;;;;5029230;28;20091;-77
2023/01/30 09:24:33;;;;;;;0.73;0.60;;;;;;;;;;5029374;28;20478;-77
2023/01/30 09:27:02;;;;;;;1.33;0.75;;;;;;;;;;5029274;28;20036;-77
2023/01/30 09:29:28;;;;;;;0.70;0.70;;;;;;;;;;5028287;28;20041;-77
2023/01/30 09:31:57;;;;;;;0.80;0.70;;;;;;;;;;5028778;28;20044;-77
2023/01/30 09:34:27;;;;;;;0.93;0.93;;;;;;;;;;5028374;28;20684;-76
2023/01/30 09:37:03;;;;;;;0.85;0.73;;;;;;;;;;5028677;28;20333;-76
2023/01/30 09:39:29;;;;;;;0.75;0.50;;;;;;;;;;5028890;28;20024;-76
2023/01/30 09:42:01;;;;;;;0.35;0.35;;;;;;;;;;5028428;28;20038;-76
2023/01/30 09:44:36;;;;;;;1.45;0.65;;;;;;;;;;5028723;28;20138;-77
2023/01/30 09:47:09;;;;;;;0.70;0.70;;;;;;;;;;5028393;28;20270;-77
2023/01/30 09:49:53;;;;;;;3.72;0.70;;;;;;;;;;5028479;28;20031;-76
2023/01/30 09:52:27;;;;;;;0.55;0.50;;;;;;;;;;5028020;28;20025;-78
2023/01/30 09:54:58;;;;;;;0.80;0.50;;;;;;;;;;5028559;28;20163;-77
2023/01/30 09:57:25;;;;;;;0.45;0.45;;;;;;;;;;5028067;28;20145;-76
2023/01/30 10:00:01;;;;;;;0.73;0.65;;;;;;;;;;5027968;28;20313;-77
2023/01/30 10:02:27;;;;;;;0.68;0.68;;;;;;;;;;5028435;28;20022;-76
2023/01/30 10:04:57;;;;;;;0.50;0.50;;;;;;;;;;5027931;28;20060;-77
2023/01/30 10:07:38;;;;;;;0.73;0.57;;;;;;;;;;5027950;28;20500;-76
2023/01/30 10:10:29;;;;;;;1.23;0.70;;;;;;;;;;5027658;28;20101;-76
2023/01/30 10:13:25;;;;;;;0.70;0.63;;;;;;;;;;5013904;28;20402;-77
2023/01/30 10:15:53;;;;;;;0.60;0.60;;;;;;;;;;5027275;28;20052;-76
2023/01/30 10:18:38;;;;;;;1.30;0.50;;;;;;;;;;5027567;28;20101;-76
2023/01/30 10:21:11;;;;;;;1.42;0.70;;;;;;;;;;5027408;28;20033;-76
2023/01/30 10:23:43;;;;;;;0.82;0.43;;;;;;;;;;5027712;28;20025;-76
2023/01/30 10:26:12;;;;;;;0.75;0.40;;;;;;;;;;5042590;28;20040;-77
2023/01/30 10:28:44;;;;;;;2.05;0.60;;;;;;;;;;5047324;28;20033;-78
2023/01/30 10:31:13;;;;;;;0.80;0.68;;;;;;;;;;5047337;28;20103;-78
2023/01/30 10:33:46;;;;;;;1.02;0.70;;;;;;;;;;5047278;28;20033;-77
2023/01/30 10:36:14;;;;;;;1.00;0.57;;;;;;;;;;5047295;28;20083;-76
2023/01/30 10:38:42;;;;;;;1.75;0.52;;;;;;;;;;5047291;28;20112;-76
2023/01/30 10:41:19;;;;;;;0.95;0.60;;;;;;;;;;5046899;28;20021;-76
2023/01/30 10:43:46;;;;;;;0.70;0.70;;;;;;;;;;5047593;28;20380;-77
2023/01/30 10:46:39;;;;;;;0.35;0.35;;;;;;;;;;5047192;28;20032;-77
2023/01/30 10:49:06;;;;;;;0.40;0.40;;;;;;;;;;5016151;28;20090;-77
2023/01/30 10:51:41;;;;;;;0.70;0.50;;;;;;;;;;5047288;28;20545;-77
2023/01/30 10:54:12;;;;;;;0.50;0.50;;;;;;;;;;5046671;28;20478;-78
2023/01/30 10:56:47;;;;;;;1.20;0.60;;;;;;;;;;5046741;28;20767;-78
2023/01/30 10:59:33;;;;;;;0.43;0.43;;;;;;;;;;5046982;28;20043;-76
2023/01/30 11:02:06;;;;;;;1.95;0.90;;;;;;;;;;5047102;28;20025;-78
2023/01/30 11:04:45;;;;;;;0.55;0.47;;;;;;;;;;5035302;28;20026;-77
2023/01/30 11:07:16;;;;;;;0.50;0.50;;;;;;;;;;5026504;28;20104;-78
2023/01/30 11:09:44;;;;;;;0.40;0.40;;;;;;;;;;5027220;28;20022;-78
2023/01/30 11:12:10;;;;;;;0.50;0.50;;;;;;;;;;5039143;28;20064;-77
2023/01/30 11:14:55;;;;;;;4.80;0.75;;;;;;;;;;5020694;28;20710;-76
2023/01/30 11:17:30;;;;;;;0.40;0.40;;;;;;;;;;5013024;28;20041;-76
2023/01/30 11:19:57;;;;;;;1.52;0.40;;;;;;;;;;5013229;28;20127;-75
2023/01/30 11:22:25;;;;;;;2.05;0.45;;;;;;;;;;5007455;28;20077;-82
2023/01/30 11:24:59;;;;;;;0.30;0.30;;;;;;;;;;5020508;28;20605;-79
2023/01/30 11:27:29;;;;;;;1.17;0.60;;;;;;;;;;5015736;28;20039;-80
2023/01/30 11:30:07;;;;;;;4.03;0.82;;;;;;;;;;5018030;28;20140;-77
2023/01/30 11:32:33;;;;;;;1.27;0.50;;;;;;;;;;5020749;28;20443;-77
2023/01/30 11:35:11;;;;;;;0.40;0.40;;;;;;;;;;5047749;28;20033;-77
2023/01/30 11:37:38;;;;;;;1.23;0.60;;;;;;;;;;5028730;28;20018;-76
2023/01/30 11:40:24;;;;;;;8.18;1.10;;;;;;;;;;5018158;28;20075;-76
2023/01/30 11:42:51;;;;;;;0.70;0.60;;;;;;;;;;5010974;28;20175;-77
2023/01/30 11:45:18;;;;;;;1.25;0.45;;;;;;;;;;5021873;28;20532;-77
2023/01/30 11:47:55;;;;;;;0.90;0.63;;;;;;;;;;5026539;28;20040;-77
2023/01/30 11:50:23;;;;;;;1.45;0.60;;;;;;;;;;5025887;28;20231;-77
2023/01/30 11:52:49;;;;;;;0.60;0.50;;;;;;;;;;5026010;28;20029;-76
2023/01/30 11:55:19;;;;;;;2.83;0.70;;;;;;;;;;5026356;28;20124;-77
2023/01/30 11:57:57;;;;;;;2.30;0.73;;;;;;;;;;5026801;28;20112;-76
2023/01/30 12:00:37;;;;;;;2.38;0.70;;;;;;;;;;5025315;28;20186;-76
2023/01/30 12:03:05;;;;;;;1.20;0.70;;;;;;;;;;5025634;28;20532;-76
2023/01/30 12:05:33;;;;;;;3.00;0.70;;;;;;;;;;5026133;28;20367;-77
2023/01/30 12:08:23;;;;;;;1.27;0.43;;;;;;;;;;5026412;28;20034;-76
2023/01/30 12:11:00;;;;;;;1.85;0.50;;;;;;;;;;5026179;28;20083;-76
2023/01/30 12:13:32;;;;;;;1.55;0.30;;;;;;;;;;5023868;28;20026;-76
2023/01/30 12:16:16;;;;;;;0.50;0.40;;;;;;;;;;5026261;28;20128;-77
2023/01/30 12:18:50;;;;;;;0.30;0.30;;;;;;;;;;5025947;28;20059;-77
2023/01/30 12:21:35;;;;;;;1.20;0.50;;;;;;;;;;5025952;28;20025;-77
2023/01/30 12:24:18;;;;;;;0.57;0.50;;;;;;;;;;5025871;28;20455;-77
2023/01/30 12:26:46;;;;;;;1.13;0.63;;;;;;;;;;5026021;28;20545;-77
2023/01/30 12:29:21;;;;;;;1.25;0.60;;;;;;;;;;5025790;28;20029;-77
2023/01/30 12:31:57;;;;;;;0.70;0.40;;;;;;;;;;5026001;28;20056;-77
2023/01/30 12:34:24;;;;;;;1.85;0.63;;;;;;;;;;5025286;28;20564;-76
2023/01/30 12:36:55;;;;;;;2.33;0.40;;;;;;;;;;5025433;28;20037;-77
2023/01/30 12:39:21;;;;;;;;;;;;;;;;;;5029058;28;20044;-77
2023/01/30 12:42:07;;;;;;;1.35;0.60;;;;;;;;;;5030010;28;20410;-77
2023/01/30 12:44:52;;;;;;;1.27;0.45;;;;;;;;;;5029618;28;20089;-77
2023/01/30 12:47:24;;;;;;;0.40;0.40;;;;;;;;;;5029487;28;20156;-78
2023/01/30 12:50:00;;;;;;;0.40;0.40;;;;;;;;;;5029603;28;20021;-78
2023/01/30 12:52:39;;;;;;;1.55;0.60;;;;;;;;;;5029322;28;20104;-77
2023/01/30 12:55:21;;;;;;;0.30;0.30;;;;;;;;;;5029226;28;20543;-77
2023/01/30 12:57:56;;;;;;;0.98;0.43;;;;;;;;;;5029266;28;20481;-76
2023/01/30 13:00:25;;;;;;;0.70;0.40;;;;;;;;;;5028700;28;20136;-76
2023/01/30 13:02:51;;;;;;;1.67;0.77;;;;;;;;;;5029374;28;20224;-77
2023/01/30 13:05:23;;;;;;;1.08;0.45;;;;;;;;;;5028910;28;20087;-76
2023/01/30 13:07:49;;;;;;;2.00;0.55;;;;;;;;;;5029317;28;20128;-77
2023/01/30 13:10:33;;;;;;;0.25;0.25;;;;;;;;;;5029283;28;20037;-77
2023/01/30 13:13:08;;;;;;;1.50;0.50;;;;;;;;;;5033603;28;20108;-76
2023/01/30 13:15:38;;;;;;;1.38;0.55;;;;;;;;;;5028783;28;20021;-76
2023/01/30 13:18:10;;;;;;;0.45;0.40;;;;;;;;;;5028593;28;20021;-76
2023/01/30 13:20:52;;;;;;;0.35;0.35;;;;;;;;;;5028872;28;20437;-77
2023/01/30 13:23:38;;;;;;;0.55;0.38;;;;;;;;;;5028634;28;20446;-76
2023/01/30 13:26:07;;;;;;;1.02;0.50;;;;;;;;;;5028661;28;20029;-77
2023/01/30 13:28:37;;;;;;;0.50;0.47;;;;;;;;;;5028879;28;20084;-77
2023/01/30 13:31:05;;;;;;;1.83;0.60;;;;;;;;;;5028489;28;20033;-77
2023/01/30 13:33:33;;;;;;;2.60;0.40;;;;;;;;;;5028907;28;20025;-76
2023/01/30 13:36:05;;;;;;;1.38;0.50;;;;;;;;;;5028894;28;20583;-77
2023/01/30 13:38:33;;;;;;;0.50;0.50;;;;;;;;;;5028858;28;20108;-77
2023/01/30 13:40:59;;;;;;;2.17;0.40;;;;;;;;;;5029188;28;20025;-76
2023/01/30 13:43:28;;;;;;;1.92;0.57;;;;;;;;;;5028391;28;20430;-77
2023/01/30 13:45:56;;;;;;;0.38;0.38;;;;;;;;;;5028394;28;20501;-77
2023/01/30 13:48:31;;;;;;;1.58;0.73;;;;;;;;;;5028226;28;20364;-77
2023/01/30 13:51:15;;;;;;;0.60;0.40;;;;;;;;;;5027716;28;20033;-77
2023/01/30 13:53:49;;;;;;;1.48;1.30;;;;;;;;;;5028161;28;20113;-77
2023/01/30 13:56:20;;;;;;;0.52;0.50;;;;;;;;;;5028658;28;20053;-76
2023/01/30 13:59:02;;;;;;;0.90;0.60;;;;;;;;;;5028517;28;20460;-76
2023/01/30 14:01:48;;;;;;;3.00;0.52;;;;;;;;;;5028353;28;20061;-77
2023/01/30 14:04:33;;;;;;;1.83;0.40;;;;;;;;;;5028304;28;20065;-76
2023/01/30 14:07:14;;;;;;;3.13;0.70;;;;;;;;;;5028336;28;20399;-77
2023/01/30 14:09:42;;;;;;;0.57;0.40;;;;;;;;;;5027772;28;20109;-77
2023/01/30 14:12:17;;;;;;;0.55;0.40;;;;;;;;;;5031235;28;20258;-78
2023/01/30 14:14:55;;;;;;;0.43;0.35;;;;;;;;;;5028087;28;20135;-77
2023/01/30 14:17:21;;;;;;;0.93;0.30;;;;;;;;;;5027475;28;20245;-77
2023/01/30 14:20:05;;;;;;;0.77;0.50;;;;;;;;;;5027784;28;20025;-77
2023/01/30 14:22:38;;;;;;;0.73;0.50;;;;;;;;;;5028180;28;20036;-77
2023/01/30 14:25:22;;;;;;;0.98;0.40;;;;;;;;;;5027484;28;20095;-77
2023/01/30 14:27:51;;;;;;;2.55;0.40;;;;;;;;;;5027385;28;20032;-77
2023/01/30 14:30:36;;;;;;;0.40;0.20;;;;;;;;;;5027649;28;20033;-76
2023/01/30 14:33:03;;;;;;;1.02;0.47;;;;;;;;;;5027591;28;20614;-77
2023/01/30 14:35:30;;;;;;;0.50;0.50;;;;;;;;;;5027781;28;20112;-77
2023/01/30 14:38:05;;;;;;;0.57;0.35;;;;;;;;;;5027182;28;20104;-76
2023/01/30 14:40:34;;;;;;;1.45;0.43;;;;;;;;;;5027328;28;20030;-76
2023/01/30 14:43:15;;;;;;;0.77;0.40;;;;;;;;;;5027498;28;20471;-77
2023/01/30 14:45:55;;;;;;;0.80;0.50;;;;;;;;;;5027051;28;20021;-77
2023/01/30 14:48:28;;;;;;;0.30;0.30;;;;;;;;;;5026762;28;20773;-76
2023/01/30 14:51:13;;;;;;;0.30;0.25;;;;;;;;;;5027360;28;20155;-77
2023/01/30 14:53:59;;;;;;;1.48;0.82;;;;;;;;;;5026927;28;20041;-76
2023/01/30 14:56:43;;;;;;;0.50;0.50;;;;;;;;;;5026812;28;20025;-77
2023/01/30 14:59:15;;;;;;;0.25;0.25;;;;;;;;;;5026564;28;20112;-77
2023/01/30 15:01:55;;;;;;;0.95;0.30;;;;;;;;;;5026623;28;20041;-77
2023/01/30 15:04:21;;;;;;;0.30;0.30;;;;;;;;;;5026497;28;20358;-77
2023/01/30 15:06:48;;;;;;;0.70;0.40;;;;;;;;;;5026818;28;20064;-76